sensor_id;sensor_type;location;lat;lon;timestamp;P1;durP1;ratioP1;P2;durP2;ratioP2
59607;SDS011;45426;44.726;10.390;2023-03-01T00:00:11;29.23;;;14.70;;
59607;SDS011;45426;44.726;10.390;2023-03-01T00:02:37;29.50;;;13.77;;
59607;SDS011;45426;44.726;10.390;2023-03-01T00:05:03;28.83;;;14.35;;
59607;SDS011;45426;44.726;10.390;2023-03-01T00:07:29;28.58;;;14.10;;
59607;SDS011;45426;44.726;10.390;2023-03-01T00:09:54;31.25;;;14.45;;
59607;SDS011;45426;44.726;10.390;2023-03-01T00:12:20;28.48;;;13.70;;
59607;SDS011;45426;44.726;10.390;2023-03-01T00:14:45;30.98;;;13.45;;
59607;SDS011;45426;44.726;10.390;2023-03-01T00:17:10;27.98;;;13.13;;
59607;SDS011;45426;44.726;10.390;2023-03-01T00:19:36;28.27;;;13.20;;
59607;SDS011;45426;44.726;10.390;2023-03-01T00:22:02;28.30;;;12.75;;
59607;SDS011;45426;44.726;10.390;2023-03-01T00:24:27;30.15;;;13.60;;
59607;SDS011;45426;44.726;10.390;2023-03-01T00:26:54;28.17;;;14.13;;
59607;SDS011;45426;44.726;10.390;2023-03-01T00:29:21;30.08;;;14.38;;
59607;SDS011;45426;44.726;10.390;2023-03-01T00:31:47;30.70;;;13.18;;
59607;SDS011;45426;44.726;10.390;2023-03-01T00:34:12;29.77;;;13.52;;
59607;SDS011;45426;44.726;10.390;2023-03-01T00:36:38;26.42;;;13.45;;
59607;SDS011;45426;44.726;10.390;2023-03-01T00:39:04;31.83;;;14.20;;
59607;SDS011;45426;44.726;10.390;2023-03-01T00:41:34;26.75;;;13.63;;
59607;SDS011;45426;44.726;10.390;2023-03-01T00:44:00;29.38;;;13.98;;
59607;SDS011;45426;44.726;10.390;2023-03-01T00:46:25;30.23;;;14.00;;
59607;SDS011;45426;44.726;10.390;2023-03-01T00:48:52;28.98;;;13.20;;
59607;SDS011;45426;44.726;10.390;2023-03-01T00:51:19;29.05;;;13.77;;
59607;SDS011;45426;44.726;10.390;2023-03-01T00:53:46;31.42;;;14.85;;
59607;SDS011;45426;44.726;10.390;2023-03-01T00:56:16;30.25;;;13.85;;
59607;SDS011;45426;44.726;10.390;2023-03-01T00:58:42;30.73;;;14.30;;
59607;SDS011;45426;44.726;10.390;2023-03-01T01:01:15;28.67;;;14.88;;
59607;SDS011;45426;44.726;10.390;2023-03-01T01:03:44;30.02;;;13.88;;
59607;SDS011;45426;44.726;10.390;2023-03-01T01:06:13;28.83;;;13.95;;
59607;SDS011;45426;44.726;10.390;2023-03-01T01:08:39;28.80;;;14.50;;
59607;SDS011;45426;44.726;10.390;2023-03-01T01:11:05;35.10;;;15.27;;
59607;SDS011;45426;44.726;10.390;2023-03-01T01:13:30;30.98;;;13.38;;
59607;SDS011;45426;44.726;10.390;2023-03-01T01:16:00;28.55;;;13.13;;
59607;SDS011;45426;44.726;10.390;2023-03-01T01:18:26;25.77;;;11.95;;
59607;SDS011;45426;44.726;10.390;2023-03-01T01:20:51;27.05;;;12.00;;
59607;SDS011;45426;44.726;10.390;2023-03-01T01:23:17;27.10;;;12.35;;
59607;SDS011;45426;44.726;10.390;2023-03-01T01:25:42;27.17;;;12.50;;
59607;SDS011;45426;44.726;10.390;2023-03-01T01:28:08;26.08;;;11.75;;
59607;SDS011;45426;44.726;10.390;2023-03-01T01:30:33;23.10;;;11.45;;
59607;SDS011;45426;44.726;10.390;2023-03-01T01:32:58;25.60;;;11.95;;
59607;SDS011;45426;44.726;10.390;2023-03-01T01:35:24;24.60;;;11.38;;
59607;SDS011;45426;44.726;10.390;2023-03-01T01:37:49;25.25;;;12.10;;
59607;SDS011;45426;44.726;10.390;2023-03-01T01:40:15;26.67;;;12.13;;
59607;SDS011;45426;44.726;10.390;2023-03-01T01:42:40;25.05;;;11.45;;
59607;SDS011;45426;44.726;10.390;2023-03-01T01:50:19;23.52;;;11.15;;
59607;SDS011;45426;44.726;10.390;2023-03-01T01:52:44;26.90;;;12.02;;
59607;SDS011;45426;44.726;10.390;2023-03-01T01:55:14;24.05;;;12.25;;
59607;SDS011;45426;44.726;10.390;2023-03-01T01:57:45;26.13;;;11.73;;
59607;SDS011;45426;44.726;10.390;2023-03-01T02:00:33;25.70;;;11.77;;
59607;SDS011;45426;44.726;10.390;2023-03-01T02:05:38;27.30;;;12.18;;
59607;SDS011;45426;44.726;10.390;2023-03-01T02:08:12;28.50;;;12.60;;
59607;SDS011;45426;44.726;10.390;2023-03-01T02:10:39;25.30;;;12.15;;
59607;SDS011;45426;44.726;10.390;2023-03-01T02:13:05;25.35;;;11.27;;
59607;SDS011;45426;44.726;10.390;2023-03-01T02:15:33;28.10;;;12.30;;
59607;SDS011;45426;44.726;10.390;2023-03-01T02:17:59;26.90;;;12.13;;
59607;SDS011;45426;44.726;10.390;2023-03-01T02:22:52;24.02;;;11.57;;
59607;SDS011;45426;44.726;10.390;2023-03-01T02:25:27;23.38;;;10.65;;
59607;SDS011;45426;44.726;10.390;2023-03-01T02:30:40;24.92;;;11.07;;
59607;SDS011;45426;44.726;10.390;2023-03-01T02:33:29;24.85;;;11.35;;
59607;SDS011;45426;44.726;10.390;2023-03-01T02:36:00;25.88;;;11.73;;
59607;SDS011;45426;44.726;10.390;2023-03-01T02:38:30;24.88;;;11.48;;
59607;SDS011;45426;44.726;10.390;2023-03-01T02:40:56;26.20;;;12.43;;
59607;SDS011;45426;44.726;10.390;2023-03-01T02:43:22;24.23;;;11.27;;
59607;SDS011;45426;44.726;10.390;2023-03-01T02:45:51;26.60;;;11.68;;
59607;SDS011;45426;44.726;10.390;2023-03-01T02:48:18;26.27;;;11.75;;
59607;SDS011;45426;44.726;10.390;2023-03-01T02:50:49;24.05;;;11.23;;
59607;SDS011;45426;44.726;10.390;2023-03-01T02:53:21;22.17;;;11.02;;
59607;SDS011;45426;44.726;10.390;2023-03-01T02:55:53;24.98;;;11.90;;
59607;SDS011;45426;44.726;10.390;2023-03-01T02:58:19;23.08;;;11.75;;
59607;SDS011;45426;44.726;10.390;2023-03-01T03:00:44;27.60;;;12.02;;
59607;SDS011;45426;44.726;10.390;2023-03-01T03:03:15;24.15;;;11.65;;
59607;SDS011;45426;44.726;10.390;2023-03-01T03:05:42;24.55;;;11.70;;
59607;SDS011;45426;44.726;10.390;2023-03-01T03:08:08;26.10;;;12.02;;
59607;SDS011;45426;44.726;10.390;2023-03-01T03:10:35;27.17;;;12.38;;
59607;SDS011;45426;44.726;10.390;2023-03-01T03:13:05;23.17;;;11.90;;
59607;SDS011;45426;44.726;10.390;2023-03-01T03:15:36;26.90;;;11.77;;
59607;SDS011;45426;44.726;10.390;2023-03-01T03:18:02;27.98;;;12.63;;
59607;SDS011;45426;44.726;10.390;2023-03-01T03:20:29;25.15;;;11.85;;
59607;SDS011;45426;44.726;10.390;2023-03-01T03:22:57;25.77;;;11.68;;
59607;SDS011;45426;44.726;10.390;2023-03-01T03:25:24;24.95;;;11.10;;
59607;SDS011;45426;44.726;10.390;2023-03-01T03:27:51;25.13;;;10.98;;
59607;SDS011;45426;44.726;10.390;2023-03-01T03:30:25;23.80;;;11.40;;
59607;SDS011;45426;44.726;10.390;2023-03-01T03:32:52;25.88;;;11.20;;
59607;SDS011;45426;44.726;10.390;2023-03-01T03:35:21;25.48;;;12.25;;
59607;SDS011;45426;44.726;10.390;2023-03-01T03:37:49;25.67;;;11.68;;
59607;SDS011;45426;44.726;10.390;2023-03-01T03:40:28;24.02;;;11.18;;
59607;SDS011;45426;44.726;10.390;2023-03-01T03:42:56;27.30;;;12.15;;
59607;SDS011;45426;44.726;10.390;2023-03-01T03:45:22;26.10;;;12.23;;
59607;SDS011;45426;44.726;10.390;2023-03-01T03:47:47;25.73;;;11.85;;
59607;SDS011;45426;44.726;10.390;2023-03-01T03:50:14;24.35;;;11.20;;
59607;SDS011;45426;44.726;10.390;2023-03-01T03:52:41;25.38;;;11.50;;
59607;SDS011;45426;44.726;10.390;2023-03-01T03:55:07;24.77;;;10.55;;
59607;SDS011;45426;44.726;10.390;2023-03-01T03:57:39;25.40;;;10.73;;
59607;SDS011;45426;44.726;10.390;2023-03-01T04:00:06;23.77;;;11.30;;
59607;SDS011;45426;44.726;10.390;2023-03-01T04:02:40;25.47;;;11.93;;
59607;SDS011;45426;44.726;10.390;2023-03-01T04:05:09;25.80;;;11.27;;
59607;SDS011;45426;44.726;10.390;2023-03-01T04:07:37;27.48;;;11.27;;
59607;SDS011;45426;44.726;10.390;2023-03-01T04:10:06;23.73;;;11.32;;
59607;SDS011;45426;44.726;10.390;2023-03-01T04:12:33;27.02;;;12.07;;
59607;SDS011;45426;44.726;10.390;2023-03-01T04:15:00;25.98;;;11.70;;
59607;SDS011;45426;44.726;10.390;2023-03-01T04:17:26;25.58;;;11.98;;
59607;SDS011;45426;44.726;10.390;2023-03-01T04:19:52;25.67;;;11.73;;
59607;SDS011;45426;44.726;10.390;2023-03-01T04:22:18;29.27;;;12.43;;
59607;SDS011;45426;44.726;10.390;2023-03-01T04:24:43;24.48;;;12.50;;
59607;SDS011;45426;44.726;10.390;2023-03-01T04:27:31;26.90;;;11.48;;
59607;SDS011;45426;44.726;10.390;2023-03-01T04:30:00;23.90;;;11.95;;
59607;SDS011;45426;44.726;10.390;2023-03-01T04:32:26;24.52;;;11.45;;
59607;SDS011;45426;44.726;10.390;2023-03-01T04:34:52;24.77;;;11.65;;
59607;SDS011;45426;44.726;10.390;2023-03-01T04:37:17;24.55;;;11.60;;
59607;SDS011;45426;44.726;10.390;2023-03-01T04:39:42;26.60;;;12.40;;
59607;SDS011;45426;44.726;10.390;2023-03-01T04:42:12;23.27;;;11.57;;
59607;SDS011;45426;44.726;10.390;2023-03-01T04:44:38;25.00;;;11.40;;
59607;SDS011;45426;44.726;10.390;2023-03-01T04:47:04;28.25;;;12.77;;
59607;SDS011;45426;44.726;10.390;2023-03-01T04:49:29;24.15;;;11.75;;
59607;SDS011;45426;44.726;10.390;2023-03-01T04:51:55;24.52;;;11.70;;
59607;SDS011;45426;44.726;10.390;2023-03-01T04:54:23;27.60;;;12.65;;
59607;SDS011;45426;44.726;10.390;2023-03-01T04:56:48;30.92;;;16.50;;
59607;SDS011;45426;44.726;10.390;2023-03-01T04:59:14;29.00;;;12.77;;
59607;SDS011;45426;44.726;10.390;2023-03-01T05:01:39;29.85;;;13.32;;
59607;SDS011;45426;44.726;10.390;2023-03-01T05:04:07;24.98;;;13.00;;
59607;SDS011;45426;44.726;10.390;2023-03-01T05:06:38;26.90;;;12.32;;
59607;SDS011;45426;44.726;10.390;2023-03-01T05:09:04;29.42;;;13.05;;
59607;SDS011;45426;44.726;10.390;2023-03-01T05:11:30;29.05;;;13.32;;
59607;SDS011;45426;44.726;10.390;2023-03-01T05:13:58;27.75;;;13.13;;
59607;SDS011;45426;44.726;10.390;2023-03-01T05:16:24;30.17;;;13.32;;
59607;SDS011;45426;44.726;10.390;2023-03-01T05:18:49;28.42;;;12.30;;
59607;SDS011;45426;44.726;10.390;2023-03-01T05:21:15;29.02;;;13.25;;
59607;SDS011;45426;44.726;10.390;2023-03-01T05:23:41;31.00;;;15.48;;
59607;SDS011;45426;44.726;10.390;2023-03-01T05:26:07;29.25;;;16.30;;
59607;SDS011;45426;44.726;10.390;2023-03-01T05:28:33;29.88;;;14.65;;
59607;SDS011;45426;44.726;10.390;2023-03-01T05:30:59;28.73;;;13.73;;
59607;SDS011;45426;44.726;10.390;2023-03-01T05:33:26;29.02;;;13.45;;
59607;SDS011;45426;44.726;10.390;2023-03-01T05:35:52;28.17;;;12.98;;
59607;SDS011;45426;44.726;10.390;2023-03-01T05:38:18;30.60;;;16.05;;
59607;SDS011;45426;44.726;10.390;2023-03-01T05:40:46;33.00;;;16.73;;
59607;SDS011;45426;44.726;10.390;2023-03-01T05:43:13;31.40;;;13.80;;
59607;SDS011;45426;44.726;10.390;2023-03-01T05:45:40;28.05;;;12.07;;
59607;SDS011;45426;44.726;10.390;2023-03-01T05:48:07;24.20;;;11.65;;
59607;SDS011;45426;44.726;10.390;2023-03-01T05:50:35;25.33;;;12.15;;
59607;SDS011;45426;44.726;10.390;2023-03-01T05:53:03;30.08;;;14.13;;
59607;SDS011;45426;44.726;10.390;2023-03-01T05:55:33;28.35;;;15.57;;
59607;SDS011;45426;44.726;10.390;2023-03-01T05:58:00;38.45;;;28.23;;
59607;SDS011;45426;44.726;10.390;2023-03-01T06:00:27;38.35;;;26.08;;
59607;SDS011;45426;44.726;10.390;2023-03-01T06:02:55;31.27;;;18.40;;
59607;SDS011;45426;44.726;10.390;2023-03-01T06:05:21;26.35;;;12.50;;
59607;SDS011;45426;44.726;10.390;2023-03-01T06:07:47;26.65;;;12.32;;
59607;SDS011;45426;44.726;10.390;2023-03-01T06:10:13;27.42;;;12.68;;
59607;SDS011;45426;44.726;10.390;2023-03-01T06:12:40;23.13;;;11.02;;
59607;SDS011;45426;44.726;10.390;2023-03-01T06:15:07;24.98;;;11.60;;
59607;SDS011;45426;44.726;10.390;2023-03-01T06:17:37;25.67;;;12.48;;
59607;SDS011;45426;44.726;10.390;2023-03-01T06:20:06;27.38;;;12.80;;
59607;SDS011;45426;44.726;10.390;2023-03-01T06:22:33;28.02;;;12.48;;
59607;SDS011;45426;44.726;10.390;2023-03-01T06:24:59;27.15;;;11.95;;
59607;SDS011;45426;44.726;10.390;2023-03-01T06:27:24;29.25;;;13.50;;
59607;SDS011;45426;44.726;10.390;2023-03-01T06:29:50;25.88;;;12.60;;
59607;SDS011;45426;44.726;10.390;2023-03-01T06:32:15;24.25;;;12.07;;
59607;SDS011;45426;44.726;10.390;2023-03-01T06:34:41;24.67;;;11.73;;
59607;SDS011;45426;44.726;10.390;2023-03-01T06:37:06;26.75;;;11.13;;
59607;SDS011;45426;44.726;10.390;2023-03-01T06:39:32;24.83;;;11.05;;
59607;SDS011;45426;44.726;10.390;2023-03-01T06:41:58;23.40;;;10.48;;
59607;SDS011;45426;44.726;10.390;2023-03-01T06:44:23;21.65;;;10.35;;
59607;SDS011;45426;44.726;10.390;2023-03-01T06:46:49;24.17;;;10.52;;
59607;SDS011;45426;44.726;10.390;2023-03-01T06:49:14;22.08;;;10.27;;
59607;SDS011;45426;44.726;10.390;2023-03-01T06:51:41;23.08;;;10.10;;
59607;SDS011;45426;44.726;10.390;2023-03-01T06:54:06;24.25;;;10.52;;
59607;SDS011;45426;44.726;10.390;2023-03-01T06:56:32;22.63;;;10.60;;
59607;SDS011;45426;44.726;10.390;2023-03-01T06:58:58;21.88;;;10.48;;
59607;SDS011;45426;44.726;10.390;2023-03-01T07:01:24;22.27;;;10.18;;
59607;SDS011;45426;44.726;10.390;2023-03-01T07:03:50;23.20;;;10.48;;
59607;SDS011;45426;44.726;10.390;2023-03-01T07:06:15;24.40;;;10.55;;
59607;SDS011;45426;44.726;10.390;2023-03-01T07:08:41;20.80;;;10.00;;
59607;SDS011;45426;44.726;10.390;2023-03-01T07:11:06;23.50;;;10.40;;
59607;SDS011;45426;44.726;10.390;2023-03-01T07:13:32;23.42;;;10.82;;
59607;SDS011;45426;44.726;10.390;2023-03-01T07:15:57;25.77;;;11.27;;
59607;SDS011;45426;44.726;10.390;2023-03-01T07:18:23;22.77;;;10.70;;
59607;SDS011;45426;44.726;10.390;2023-03-01T07:20:49;24.40;;;11.30;;
59607;SDS011;45426;44.726;10.390;2023-03-01T07:23:14;25.75;;;11.55;;
59607;SDS011;45426;44.726;10.390;2023-03-01T07:25:40;23.50;;;11.05;;
59607;SDS011;45426;44.726;10.390;2023-03-01T07:28:06;24.77;;;11.38;;
59607;SDS011;45426;44.726;10.390;2023-03-01T07:30:32;26.17;;;11.55;;
59607;SDS011;45426;44.726;10.390;2023-03-01T07:32:57;24.15;;;11.15;;
59607;SDS011;45426;44.726;10.390;2023-03-01T07:35:23;25.40;;;11.48;;
59607;SDS011;45426;44.726;10.390;2023-03-01T07:37:50;24.70;;;10.77;;
59607;SDS011;45426;44.726;10.390;2023-03-01T07:40:16;24.73;;;11.00;;
59607;SDS011;45426;44.726;10.390;2023-03-01T07:42:42;25.23;;;11.02;;
59607;SDS011;45426;44.726;10.390;2023-03-01T07:45:07;23.58;;;10.80;;
59607;SDS011;45426;44.726;10.390;2023-03-01T07:47:34;25.95;;;11.70;;
59607;SDS011;45426;44.726;10.390;2023-03-01T07:50:00;26.42;;;11.27;;
59607;SDS011;45426;44.726;10.390;2023-03-01T07:52:26;24.85;;;10.77;;
59607;SDS011;45426;44.726;10.390;2023-03-01T07:54:51;23.48;;;11.40;;
59607;SDS011;45426;44.726;10.390;2023-03-01T07:57:17;26.15;;;11.57;;
59607;SDS011;45426;44.726;10.390;2023-03-01T07:59:42;24.52;;;11.05;;
59607;SDS011;45426;44.726;10.390;2023-03-01T08:02:08;23.83;;;11.05;;
59607;SDS011;45426;44.726;10.390;2023-03-01T08:04:34;24.77;;;10.85;;
59607;SDS011;45426;44.726;10.390;2023-03-01T08:06:59;24.52;;;10.80;;
59607;SDS011;45426;44.726;10.390;2023-03-01T08:09:25;26.58;;;11.60;;
59607;SDS011;45426;44.726;10.390;2023-03-01T08:11:51;22.60;;;10.77;;
59607;SDS011;45426;44.726;10.390;2023-03-01T08:14:16;28.55;;;12.07;;
59607;SDS011;45426;44.726;10.390;2023-03-01T08:16:42;22.90;;;10.50;;
59607;SDS011;45426;44.726;10.390;2023-03-01T08:19:11;21.92;;;10.85;;
59607;SDS011;45426;44.726;10.390;2023-03-01T08:21:37;23.25;;;10.63;;
59607;SDS011;45426;44.726;10.390;2023-03-01T08:24:04;23.27;;;10.93;;
59607;SDS011;45426;44.726;10.390;2023-03-01T08:26:31;26.50;;;11.50;;
59607;SDS011;45426;44.726;10.390;2023-03-01T08:28:57;27.15;;;11.68;;
59607;SDS011;45426;44.726;10.390;2023-03-01T08:31:27;26.08;;;11.82;;
59607;SDS011;45426;44.726;10.390;2023-03-01T08:33:56;24.55;;;11.02;;
59607;SDS011;45426;44.726;10.390;2023-03-01T08:36:25;25.38;;;11.95;;
59607;SDS011;45426;44.726;10.390;2023-03-01T08:38:52;25.27;;;11.43;;
59607;SDS011;45426;44.726;10.390;2023-03-01T08:41:17;24.20;;;10.93;;
59607;SDS011;45426;44.726;10.390;2023-03-01T08:43:43;26.85;;;11.32;;
59607;SDS011;45426;44.726;10.390;2023-03-01T08:46:08;29.45;;;12.15;;
59607;SDS011;45426;44.726;10.390;2023-03-01T08:48:34;31.63;;;12.63;;
59607;SDS011;45426;44.726;10.390;2023-03-01T08:51:07;27.38;;;11.85;;
59607;SDS011;45426;44.726;10.390;2023-03-01T08:53:33;27.48;;;12.32;;
59607;SDS011;45426;44.726;10.390;2023-03-01T08:55:59;27.05;;;11.50;;
59607;SDS011;45426;44.726;10.390;2023-03-01T08:58:27;29.48;;;13.25;;
59607;SDS011;45426;44.726;10.390;2023-03-01T09:00:53;26.40;;;12.82;;
59607;SDS011;45426;44.726;10.390;2023-03-01T09:03:18;26.35;;;12.27;;
59607;SDS011;45426;44.726;10.390;2023-03-01T09:05:44;23.95;;;11.10;;
59607;SDS011;45426;44.726;10.390;2023-03-01T09:08:10;24.30;;;11.10;;
59607;SDS011;45426;44.726;10.390;2023-03-01T09:10:37;27.27;;;11.35;;
59607;SDS011;45426;44.726;10.390;2023-03-01T09:13:04;25.83;;;10.80;;
59607;SDS011;45426;44.726;10.390;2023-03-01T09:15:29;24.02;;;10.85;;
59607;SDS011;45426;44.726;10.390;2023-03-01T09:17:54;24.27;;;11.10;;
59607;SDS011;45426;44.726;10.390;2023-03-01T09:20:20;26.42;;;10.77;;
59607;SDS011;45426;44.726;10.390;2023-03-01T09:22:45;23.77;;;10.52;;
59607;SDS011;45426;44.726;10.390;2023-03-01T09:25:11;23.75;;;10.45;;
59607;SDS011;45426;44.726;10.390;2023-03-01T09:27:36;25.05;;;10.73;;
59607;SDS011;45426;44.726;10.390;2023-03-01T09:30:02;23.80;;;10.93;;
59607;SDS011;45426;44.726;10.390;2023-03-01T09:32:29;23.23;;;9.98;;
59607;SDS011;45426;44.726;10.390;2023-03-01T09:34:55;23.55;;;10.82;;
59607;SDS011;45426;44.726;10.390;2023-03-01T09:37:29;25.92;;;11.05;;
59607;SDS011;45426;44.726;10.390;2023-03-01T09:39:56;26.45;;;10.98;;
59607;SDS011;45426;44.726;10.390;2023-03-01T09:42:22;21.02;;;10.10;;
59607;SDS011;45426;44.726;10.390;2023-03-01T09:47:18;25.50;;;10.60;;
59607;SDS011;45426;44.726;10.390;2023-03-01T09:50:02;23.00;;;10.73;;
59607;SDS011;45426;44.726;10.390;2023-03-01T09:52:38;22.27;;;10.27;;
59607;SDS011;45426;44.726;10.390;2023-03-01T09:55:17;24.17;;;10.50;;
59607;SDS011;45426;44.726;10.390;2023-03-01T09:57:55;23.92;;;9.50;;
59607;SDS011;45426;44.726;10.390;2023-03-01T10:00:39;23.60;;;10.68;;
59607;SDS011;45426;44.726;10.390;2023-03-01T10:06:04;19.77;;;9.30;;
59607;SDS011;45426;44.726;10.390;2023-03-01T10:08:43;21.13;;;9.77;;
59607;SDS011;45426;44.726;10.390;2023-03-01T10:16:34;20.25;;;9.68;;
59607;SDS011;45426;44.726;10.390;2023-03-01T10:19:22;21.90;;;9.40;;
59607;SDS011;45426;44.726;10.390;2023-03-01T10:21:50;19.92;;;8.80;;
59607;SDS011;45426;44.726;10.390;2023-03-01T10:24:16;23.98;;;9.00;;
59607;SDS011;45426;44.726;10.390;2023-03-01T10:26:56;22.95;;;9.73;;
59607;SDS011;45426;44.726;10.390;2023-03-01T10:29:26;23.17;;;10.13;;
59607;SDS011;45426;44.726;10.390;2023-03-01T10:31:59;22.85;;;9.85;;
59607;SDS011;45426;44.726;10.390;2023-03-01T10:37:08;20.42;;;9.23;;
59607;SDS011;45426;44.726;10.390;2023-03-01T10:39:36;22.25;;;9.77;;
59607;SDS011;45426;44.726;10.390;2023-03-01T10:42:03;20.48;;;9.80;;
59607;SDS011;45426;44.726;10.390;2023-03-01T10:47:21;20.30;;;9.48;;
59607;SDS011;45426;44.726;10.390;2023-03-01T10:49:56;25.05;;;10.13;;
59607;SDS011;45426;44.726;10.390;2023-03-01T10:52:28;20.48;;;9.70;;
59607;SDS011;45426;44.726;10.390;2023-03-01T10:55:02;22.40;;;9.43;;
59607;SDS011;45426;44.726;10.390;2023-03-01T10:57:47;23.27;;;9.75;;
59607;SDS011;45426;44.726;10.390;2023-03-01T11:00:20;19.90;;;9.45;;
59607;SDS011;45426;44.726;10.390;2023-03-01T11:02:49;19.80;;;9.65;;
59607;SDS011;45426;44.726;10.390;2023-03-01T11:05:24;22.08;;;9.98;;
59607;SDS011;45426;44.726;10.390;2023-03-01T11:07:54;24.38;;;11.05;;
59607;SDS011;45426;44.726;10.390;2023-03-01T11:10:31;20.90;;;10.50;;
59607;SDS011;45426;44.726;10.390;2023-03-01T11:15:37;19.45;;;9.15;;
59607;SDS011;45426;44.726;10.390;2023-03-01T11:18:03;19.15;;;8.82;;
59607;SDS011;45426;44.726;10.390;2023-03-01T11:20:29;20.67;;;9.57;;
59607;SDS011;45426;44.726;10.390;2023-03-01T11:23:10;19.52;;;9.18;;
59607;SDS011;45426;44.726;10.390;2023-03-01T11:25:39;21.25;;;9.60;;
59607;SDS011;45426;44.726;10.390;2023-03-01T11:28:09;19.25;;;9.25;;
59607;SDS011;45426;44.726;10.390;2023-03-01T11:30:40;20.85;;;9.88;;
59607;SDS011;45426;44.726;10.390;2023-03-01T11:35:55;19.35;;;9.00;;
59607;SDS011;45426;44.726;10.390;2023-03-01T11:38:28;22.25;;;9.43;;
59607;SDS011;45426;44.726;10.390;2023-03-01T11:41:01;20.75;;;9.82;;
59607;SDS011;45426;44.726;10.390;2023-03-01T11:43:37;19.95;;;9.15;;
59607;SDS011;45426;44.726;10.390;2023-03-01T11:46:19;18.98;;;9.25;;
59607;SDS011;45426;44.726;10.390;2023-03-01T11:54:17;21.52;;;9.65;;
59607;SDS011;45426;44.726;10.390;2023-03-01T11:56:55;20.02;;;9.32;;
59607;SDS011;45426;44.726;10.390;2023-03-01T12:12:32;21.73;;;10.07;;
59607;SDS011;45426;44.726;10.390;2023-03-01T12:23:41;24.10;;;9.77;;
59607;SDS011;45426;44.726;10.390;2023-03-01T12:31:45;24.65;;;10.68;;
59607;SDS011;45426;44.726;10.390;2023-03-01T12:36:59;23.37;;;10.10;;
59607;SDS011;45426;44.726;10.390;2023-03-01T12:45:39;23.73;;;10.40;;
59607;SDS011;45426;44.726;10.390;2023-03-01T12:50:40;28.60;;;11.73;;
59607;SDS011;45426;44.726;10.390;2023-03-01T12:53:28;23.92;;;10.63;;
59607;SDS011;45426;44.726;10.390;2023-03-01T12:56:00;24.02;;;10.55;;
59607;SDS011;45426;44.726;10.390;2023-03-01T12:58:42;25.27;;;11.02;;
59607;SDS011;45426;44.726;10.390;2023-03-01T13:01:15;24.42;;;10.80;;
59607;SDS011;45426;44.726;10.390;2023-03-01T13:15:28;26.42;;;10.45;;
59607;SDS011;45426;44.726;10.390;2023-03-01T13:20:34;25.60;;;11.50;;
59607;SDS011;45426;44.726;10.390;2023-03-01T13:28:41;28.48;;;11.65;;
59607;SDS011;45426;44.726;10.390;2023-03-01T13:33:41;27.42;;;11.27;;
59607;SDS011;45426;44.726;10.390;2023-03-01T13:36:08;24.60;;;11.55;;
59607;SDS011;45426;44.726;10.390;2023-03-01T13:38:39;26.88;;;10.98;;
59607;SDS011;45426;44.726;10.390;2023-03-01T13:41:09;25.38;;;10.85;;
59607;SDS011;45426;44.726;10.390;2023-03-01T13:43:36;25.02;;;11.23;;
59607;SDS011;45426;44.726;10.390;2023-03-01T13:48:52;25.48;;;11.07;;
59607;SDS011;45426;44.726;10.390;2023-03-01T13:51:23;26.95;;;11.07;;
59607;SDS011;45426;44.726;10.390;2023-03-01T13:53:50;23.73;;;10.65;;
59607;SDS011;45426;44.726;10.390;2023-03-01T13:56:19;25.55;;;11.60;;
59607;SDS011;45426;44.726;10.390;2023-03-01T14:01:55;26.08;;;11.20;;
59607;SDS011;45426;44.726;10.390;2023-03-01T14:04:23;25.15;;;11.18;;
59607;SDS011;45426;44.726;10.390;2023-03-01T14:06:50;28.35;;;12.32;;
59607;SDS011;45426;44.726;10.390;2023-03-01T14:09:18;26.70;;;11.95;;
59607;SDS011;45426;44.726;10.390;2023-03-01T14:14:23;25.98;;;12.05;;
59607;SDS011;45426;44.726;10.390;2023-03-01T14:19:39;24.90;;;11.65;;
59607;SDS011;45426;44.726;10.390;2023-03-01T14:24:49;23.08;;;10.73;;
59607;SDS011;45426;44.726;10.390;2023-03-01T14:27:23;25.38;;;10.90;;
59607;SDS011;45426;44.726;10.390;2023-03-01T14:29:59;24.30;;;10.70;;
59607;SDS011;45426;44.726;10.390;2023-03-01T14:32:26;25.42;;;11.48;;
59607;SDS011;45426;44.726;10.390;2023-03-01T14:34:53;25.83;;;11.63;;
59607;SDS011;45426;44.726;10.390;2023-03-01T14:39:51;31.90;;;14.32;;
59607;SDS011;45426;44.726;10.390;2023-03-01T14:42:18;30.45;;;13.18;;
59607;SDS011;45426;44.726;10.390;2023-03-01T14:44:46;27.45;;;12.00;;
59607;SDS011;45426;44.726;10.390;2023-03-01T14:47:19;29.65;;;12.02;;
59607;SDS011;45426;44.726;10.390;2023-03-01T14:49:58;29.77;;;12.68;;
59607;SDS011;45426;44.726;10.390;2023-03-01T14:52:32;24.83;;;11.65;;
59607;SDS011;45426;44.726;10.390;2023-03-01T14:55:09;29.05;;;11.60;;
59607;SDS011;45426;44.726;10.390;2023-03-01T14:57:46;25.88;;;12.35;;
59607;SDS011;45426;44.726;10.390;2023-03-01T15:00:26;23.73;;;11.18;;
59607;SDS011;45426;44.726;10.390;2023-03-01T15:02:54;26.30;;;11.95;;
59607;SDS011;45426;44.726;10.390;2023-03-01T15:05:31;28.33;;;12.05;;
59607;SDS011;45426;44.726;10.390;2023-03-01T15:07:58;28.75;;;13.65;;
59607;SDS011;45426;44.726;10.390;2023-03-01T15:10:27;26.95;;;12.57;;
59607;SDS011;45426;44.726;10.390;2023-03-01T15:12:55;25.67;;;10.98;;
59607;SDS011;45426;44.726;10.390;2023-03-01T15:15:22;24.15;;;10.60;;
59607;SDS011;45426;44.726;10.390;2023-03-01T15:17:50;28.42;;;12.43;;
59607;SDS011;45426;44.726;10.390;2023-03-01T15:20:20;27.70;;;10.70;;
59607;SDS011;45426;44.726;10.390;2023-03-01T15:22:50;24.58;;;11.00;;
59607;SDS011;45426;44.726;10.390;2023-03-01T15:25:21;24.33;;;11.32;;
59607;SDS011;45426;44.726;10.390;2023-03-01T15:27:50;25.88;;;10.88;;
59607;SDS011;45426;44.726;10.390;2023-03-01T15:30:18;27.02;;;11.05;;
59607;SDS011;45426;44.726;10.390;2023-03-01T15:32:47;23.30;;;11.10;;
59607;SDS011;45426;44.726;10.390;2023-03-01T15:35:33;26.30;;;11.93;;
59607;SDS011;45426;44.726;10.390;2023-03-01T15:41:22;24.33;;;10.45;;
59607;SDS011;45426;44.726;10.390;2023-03-01T15:43:48;29.33;;;12.98;;
59607;SDS011;45426;44.726;10.390;2023-03-01T15:48:44;26.88;;;11.68;;
59607;SDS011;45426;44.726;10.390;2023-03-01T15:51:11;24.48;;;11.40;;
59607;SDS011;45426;44.726;10.390;2023-03-01T15:53:39;25.67;;;11.27;;
59607;SDS011;45426;44.726;10.390;2023-03-01T15:56:04;26.95;;;12.18;;
59607;SDS011;45426;44.726;10.390;2023-03-01T15:58:32;26.00;;;11.25;;
59607;SDS011;45426;44.726;10.390;2023-03-01T16:00:57;26.40;;;11.02;;
59607;SDS011;45426;44.726;10.390;2023-03-01T16:03:23;26.05;;;11.88;;
59607;SDS011;45426;44.726;10.390;2023-03-01T16:05:49;24.23;;;11.85;;
59607;SDS011;45426;44.726;10.390;2023-03-01T16:08:16;23.63;;;10.68;;
59607;SDS011;45426;44.726;10.390;2023-03-01T16:10:42;24.45;;;11.77;;
59607;SDS011;45426;44.726;10.390;2023-03-01T16:13:09;25.83;;;11.73;;
59607;SDS011;45426;44.726;10.390;2023-03-01T16:15:35;25.05;;;10.77;;
59607;SDS011;45426;44.726;10.390;2023-03-01T16:18:01;24.33;;;11.07;;
59607;SDS011;45426;44.726;10.390;2023-03-01T16:20:27;25.52;;;11.77;;